createdAt,value
2023-03-29T00:00:16.688Z,92.41
2023-03-29T00:01:36.143Z,92.41
2023-03-29T00:02:38.083Z,92.22
2023-03-29T00:03:40.346Z,92.28
2023-03-29T00:04:42.026Z,92.47
2023-03-29T00:05:44.772Z,92.09
2023-03-29T00:06:47.845Z,92.68
2023-03-29T00:08:01.641Z,92.07
2023-03-29T00:09:05.727Z,92.48
2023-03-29T00:10:09.960Z,92.79
2023-03-29T00:11:12.497Z,92.46
2023-03-29T00:12:14.016Z,91.59
2023-03-29T00:13:15.761Z,91.65
2023-03-29T00:14:17.178Z,92.01
2023-03-29T00:15:19.277Z,91.89
2023-03-29T00:16:20.895Z,92.48
2023-03-29T00:17:22.682Z,91.47
2023-03-29T00:18:24.219Z,91.19
2023-03-29T00:19:25.894Z,91.07
2023-03-29T00:20:28.770Z,90.82
2023-03-29T00:21:30.639Z,91.07
2023-03-29T00:22:32.145Z,90.14
2023-03-29T00:23:33.580Z,90.48
2023-03-29T00:24:35.219Z,90.13
2023-03-29T00:25:36.644Z,90.33
2023-03-29T00:26:38.092Z,90.09
2023-03-29T00:27:40.353Z,89.63
2023-03-29T00:28:41.976Z,89.95
2023-03-29T00:29:43.472Z,89.88
2023-03-29T00:30:45.455Z,90.86
2023-03-29T00:31:53.577Z,90.24
2023-03-29T00:32:54.956Z,90.44
2023-03-29T00:33:56.729Z,90.36
2023-03-29T00:35:00.770Z,90.58
2023-03-29T00:36:03.910Z,90.25
2023-03-29T00:37:08.606Z,90.38
2023-03-29T00:38:10.071Z,90.24
2023-03-29T00:39:11.472Z,90.45
2023-03-29T00:40:13.459Z,90.39
2023-03-29T00:41:15.165Z,90.11
2023-03-29T00:42:17.493Z,90.34
2023-03-29T00:43:19.074Z,90.38
2023-03-29T00:45:11.852Z,89.51
2023-03-29T00:46:13.443Z,89.80
2023-03-29T00:47:16.230Z,89.31
2023-03-29T00:48:21.921Z,89.81
2023-03-29T00:49:23.398Z,89.86
2023-03-29T00:50:32.207Z,90.35
2023-03-29T00:51:36.634Z,89.72
2023-03-29T00:52:39.613Z,89.49
2023-03-29T00:53:49.128Z,88.44
2023-03-29T00:54:55.353Z,88.59
2023-03-29T00:56:02.385Z,88.80
2023-03-29T00:57:04.780Z,89.47
2023-03-29T00:58:08.682Z,88.68
2023-03-29T00:59:13.761Z,88.47
2023-03-29T01:00:20.768Z,88.97
2023-03-29T01:01:34.104Z,89.27
2023-03-29T01:02:39.805Z,88.57
2023-03-29T01:03:46.961Z,88.94
2023-03-29T01:04:57.909Z,88.56
2023-03-29T01:06:09.111Z,87.97
2023-03-29T01:07:25.467Z,87.64
2023-03-29T01:08:32.637Z,88.42
2023-03-29T01:09:38.102Z,88.18
2023-03-29T01:10:49.542Z,87.87
2023-03-29T01:11:56.940Z,87.50
2023-03-29T01:13:04.793Z,87.54
2023-03-29T01:14:15.242Z,87.42
2023-03-29T01:15:21.110Z,86.50
2023-03-29T01:16:25.715Z,87.66
2023-03-29T01:17:27.229Z,86.12
2023-03-29T01:18:31.317Z,85.86
2023-03-29T01:19:40.297Z,85.00
2023-03-29T01:21:15.225Z,86.16
2023-03-29T01:22:29.586Z,85.49
2023-03-29T01:24:12.484Z,86.10
2023-03-29T01:25:26.167Z,85.52
2023-03-29T01:26:42.840Z,86.24
2023-03-29T01:28:06.295Z,86.08
2023-03-29T01:29:12.728Z,86.08
2023-03-29T01:30:37.285Z,86.75
2023-03-29T01:31:44.260Z,86.66
2023-03-29T01:32:52.401Z,86.22
2023-03-29T01:34:32.630Z,86.53
2023-03-29T01:35:45.724Z,86.06
2023-03-29T01:37:00.289Z,85.61
2023-03-29T01:38:09.538Z,86.29
2023-03-29T01:39:11.084Z,85.64
2023-03-29T01:40:12.627Z,85.79
2023-03-29T01:41:14.398Z,86.78
2023-03-29T01:42:39.689Z,86.80
2023-03-29T01:43:59.059Z,86.23
2023-03-29T01:45:23.452Z,86.41
2023-03-29T01:46:43.114Z,86.66
2023-03-29T01:48:24.574Z,86.89
2023-03-29T01:49:54.360Z,87.05
2023-03-29T01:51:01.247Z,86.78
2023-03-29T01:52:29.279Z,87.00
2023-03-29T01:53:46.996Z,87.30
2023-03-29T01:54:56.031Z,87.19
2023-03-29T01:56:04.491Z,87.25
2023-03-29T01:57:10.222Z,86.72
2023-03-29T01:58:14.287Z,86.63
2023-03-29T01:59:22.570Z,86.67
2023-03-29T02:00:27.607Z,86.34
2023-03-29T02:01:35.061Z,86.37
2023-03-29T02:02:41.554Z,85.96
2023-03-29T02:03:49.701Z,86.31
2023-03-29T02:04:54.132Z,86.35
2023-03-29T02:05:58.048Z,86.34
2023-03-29T02:07:00.679Z,86.93
2023-03-29T02:08:05.683Z,87.07
2023-03-29T02:09:07.444Z,87.76
2023-03-29T02:10:11.358Z,87.57
2023-03-29T02:11:13.517Z,87.35
2023-03-29T02:12:16.500Z,87.33
2023-03-29T02:13:19.157Z,87.74
2023-03-29T02:14:21.179Z,87.29
2023-03-29T02:15:23.493Z,87.32
2023-03-29T02:16:24.998Z,87.80
2023-03-29T02:17:28.085Z,87.44
2023-03-29T02:18:30.557Z,88.38
2023-03-29T02:19:32.487Z,88.17
2023-03-29T02:20:38.951Z,87.81
2023-03-29T02:21:51.815Z,88.89
2023-03-29T02:23:18.035Z,88.27
2023-03-29T02:24:23.511Z,87.97
2023-03-29T02:25:25.883Z,87.79
2023-03-29T02:26:28.958Z,88.19
2023-03-29T02:27:30.583Z,88.28
2023-03-29T02:28:33.211Z,88.18
2023-03-29T02:29:34.648Z,87.67
2023-03-29T02:30:54.587Z,87.95
2023-03-29T02:32:26.406Z,88.70
2023-03-29T02:33:38.987Z,87.44
2023-03-29T02:34:49.228Z,87.08
2023-03-29T02:36:00.063Z,87.71
2023-03-29T02:37:06.692Z,87.28
2023-03-29T02:38:11.368Z,87.55
2023-03-29T02:39:15.370Z,87.57
2023-03-29T02:40:18.015Z,88.10
2023-03-29T02:41:20.701Z,87.79
2023-03-29T02:42:23.113Z,88.24
2023-03-29T02:43:27.441Z,88.05
2023-03-29T02:44:32.031Z,87.44
2023-03-29T02:45:36.476Z,87.04
2023-03-29T02:46:38.375Z,87.49
2023-03-29T02:47:46.402Z,87.51
2023-03-29T02:48:50.736Z,87.71
2023-03-29T02:49:52.976Z,86.87
2023-03-29T02:50:58.317Z,86.82
2023-03-29T02:52:08.886Z,87.96
2023-03-29T02:53:17.015Z,88.08
2023-03-29T02:54:20.485Z,87.87
2023-03-29T02:55:24.748Z,87.90
2023-03-29T02:56:26.154Z,87.65
2023-03-29T02:57:28.688Z,87.42
2023-03-29T02:58:31.600Z,87.40
2023-03-29T02:59:33.506Z,87.49
2023-03-29T03:00:38.194Z,87.62
2023-03-29T03:01:42.618Z,87.84
2023-03-29T03:02:44.435Z,87.97
2023-03-29T03:03:47.835Z,88.00
2023-03-29T03:04:49.991Z,87.34
2023-03-29T03:05:52.446Z,87.22
2023-03-29T03:06:53.949Z,87.37
2023-03-29T03:07:55.337Z,88.24
2023-03-29T03:08:56.754Z,88.27
2023-03-29T03:09:58.553Z,86.98
2023-03-29T03:11:00.154Z,87.52
2023-03-29T03:12:01.832Z,88.14
2023-03-29T03:13:03.559Z,87.81
2023-03-29T03:14:06.712Z,88.23
2023-03-29T03:15:08.706Z,87.74
2023-03-29T03:16:10.244Z,87.71
2023-03-29T03:17:11.832Z,87.61
2023-03-29T03:18:13.267Z,87.64
2023-03-29T03:19:15.515Z,88.53
2023-03-29T03:20:16.913Z,88.17
2023-03-29T03:21:18.806Z,88.78
2023-03-29T03:22:20.385Z,89.23
2023-03-29T03:23:22.832Z,89.06
2023-03-29T03:24:24.302Z,88.94
2023-03-29T03:25:25.753Z,88.96
2023-03-29T03:26:29.910Z,89.58
2023-03-29T03:27:31.398Z,89.88
2023-03-29T03:28:33.125Z,88.89
2023-03-29T03:29:36.371Z,89.37
2023-03-29T03:30:38.525Z,89.98
2023-03-29T03:31:42.936Z,90.11
2023-03-29T03:32:44.707Z,90.23
2023-03-29T03:33:46.562Z,90.62
2023-03-29T03:34:47.976Z,90.02
2023-03-29T03:35:49.595Z,90.03
2023-03-29T03:36:51.007Z,89.64
2023-03-29T03:37:52.469Z,90.50
2023-03-29T03:38:53.911Z,90.67
2023-03-29T03:39:55.360Z,91.50
2023-03-29T03:40:57.452Z,91.48
2023-03-29T03:41:58.866Z,90.70
2023-03-29T03:43:00.526Z,91.83
2023-03-29T03:44:01.955Z,91.60
2023-03-29T03:45:03.508Z,91.18
2023-03-29T03:46:05.439Z,91.31
2023-03-29T03:47:07.843Z,91.67
2023-03-29T03:48:09.637Z,91.60
2023-03-29T03:49:11.137Z,91.54
2023-03-29T03:50:13.702Z,91.65
2023-03-29T03:51:15.329Z,91.35
2023-03-29T03:52:17.766Z,92.50
2023-03-29T03:53:20.074Z,92.37
2023-03-29T03:54:21.487Z,91.35
2023-03-29T03:55:23.862Z,90.99
2023-03-29T03:56:25.794Z,90.37
2023-03-29T03:57:27.494Z,90.62
2023-03-29T03:58:28.902Z,90.36
2023-03-29T03:59:30.514Z,90.48
2023-03-29T04:00:33.267Z,90.29
2023-03-29T04:01:35.433Z,89.80
2023-03-29T04:02:37.247Z,90.02
2023-03-29T04:03:39.166Z,89.88
2023-03-29T04:04:41.281Z,90.11
2023-03-29T04:05:47.086Z,90.18
2023-03-29T04:06:48.627Z,89.54
2023-03-29T04:07:50.032Z,90.50
2023-03-29T04:08:51.589Z,89.93
2023-03-29T04:09:53.076Z,90.00
2023-03-29T04:10:56.750Z,90.61
2023-03-29T04:11:59.914Z,90.92
2023-03-29T04:13:02.393Z,90.42
2023-03-29T04:14:04.310Z,89.71
2023-03-29T04:15:07.040Z,89.90
2023-03-29T04:16:08.673Z,90.10
2023-03-29T04:17:10.102Z,89.52
2023-03-29T04:18:12.382Z,89.72
2023-03-29T04:19:14.299Z,90.04
2023-03-29T04:20:16.540Z,90.09
2023-03-29T04:21:19.458Z,90.57
2023-03-29T04:22:22.657Z,90.48
2023-03-29T04:23:24.211Z,90.67
2023-03-29T04:24:25.770Z,90.97
2023-03-29T04:25:27.212Z,90.70
2023-03-29T04:26:28.618Z,90.58
2023-03-29T04:27:30.021Z,90.95
2023-03-29T04:28:31.406Z,91.24
2023-03-29T04:29:32.809Z,91.46
2023-03-29T04:30:34.396Z,91.58
2023-03-29T04:31:35.900Z,90.51
2023-03-29T04:32:37.766Z,91.15
2023-03-29T04:33:39.435Z,91.36
2023-03-29T04:34:40.895Z,91.58
2023-03-29T04:35:42.529Z,90.55
2023-03-29T04:36:44.053Z,91.00
2023-03-29T04:37:45.505Z,91.26
2023-03-29T04:38:47.893Z,91.22
2023-03-29T04:39:50.150Z,91.79
2023-03-29T04:40:51.580Z,91.12
2023-03-29T04:41:52.987Z,91.46
2023-03-29T04:42:54.542Z,91.20
2023-03-29T04:43:56.192Z,91.22
2023-03-29T04:44:58.398Z,91.19
2023-03-29T04:45:59.858Z,90.73
2023-03-29T04:47:01.421Z,91.25
2023-03-29T04:48:02.953Z,90.96
2023-03-29T04:49:05.750Z,91.07
2023-03-29T04:50:08.352Z,91.20
2023-03-29T04:51:09.804Z,90.75
2023-03-29T04:52:11.461Z,90.48
2023-03-29T04:53:12.894Z,90.88
2023-03-29T04:54:14.310Z,90.87
2023-03-29T04:55:15.766Z,91.24
2023-03-29T04:56:17.653Z,91.21
2023-03-29T04:57:19.110Z,91.11
2023-03-29T04:58:22.492Z,90.37
2023-03-29T04:59:25.372Z,90.56
2023-03-29T05:00:29.350Z,90.96
2023-03-29T05:01:30.888Z,90.58
2023-03-29T05:02:33.099Z,90.66
2023-03-29T05:03:35.519Z,91.34
2023-03-29T05:04:36.982Z,90.86
2023-03-29T05:05:38.440Z,91.22
2023-03-29T05:06:40.730Z,90.99
2023-03-29T05:07:42.173Z,90.83
2023-03-29T05:08:44.536Z,90.45
2023-03-29T05:09:45.990Z,90.35
2023-03-29T05:10:47.614Z,90.54
2023-03-29T05:11:49.916Z,89.81
2023-03-29T05:12:53.897Z,89.93
2023-03-29T05:13:57.184Z,89.62
2023-03-29T05:14:58.942Z,89.88
2023-03-29T05:16:00.778Z,89.82
2023-03-29T05:17:02.859Z,89.91
2023-03-29T05:18:04.324Z,90.14
2023-03-29T05:19:05.811Z,89.84
2023-03-29T05:20:11.637Z,88.96
2023-03-29T05:21:13.274Z,88.89
2023-03-29T05:22:15.236Z,89.06
2023-03-29T05:23:17.633Z,88.78
2023-03-29T05:24:20.089Z,88.18
2023-03-29T05:25:21.891Z,88.79
2023-03-29T05:26:23.447Z,88.06
2023-03-29T05:27:25.406Z,88.20
2023-03-29T05:28:27.113Z,88.17
2023-03-29T05:29:28.507Z,87.32
2023-03-29T05:30:29.946Z,86.65
2023-03-29T05:31:32.540Z,85.32
2023-03-29T05:32:36.828Z,86.90
2023-03-29T05:33:38.644Z,87.10
2023-03-29T05:34:40.163Z,86.75
2023-03-29T05:35:41.643Z,85.60
2023-03-29T05:36:45.292Z,85.01
2023-03-29T05:37:47.273Z,85.45
2023-03-29T05:38:49.812Z,85.00
2023-03-29T05:39:51.514Z,86.32
2023-03-29T05:40:53.046Z,84.85
2023-03-29T05:41:55.036Z,84.94
2023-03-29T05:42:56.598Z,83.88
2023-03-29T05:43:58.168Z,84.46
2023-03-29T05:44:59.678Z,83.27
2023-03-29T05:46:01.205Z,83.79
2023-03-29T05:47:02.640Z,83.86
2023-03-29T05:48:05.525Z,83.50
2023-03-29T05:49:07.157Z,84.66
2023-03-29T05:50:10.229Z,85.60
2023-03-29T05:51:11.773Z,84.48
2023-03-29T05:52:14.463Z,83.29
2023-03-29T05:53:19.461Z,84.40
2023-03-29T05:54:20.948Z,84.46
2023-03-29T05:55:22.418Z,82.21
2023-03-29T05:56:24.261Z,82.86
2023-03-29T05:57:25.852Z,81.72
2023-03-29T05:58:28.404Z,83.17
2023-03-29T05:59:29.902Z,83.91
2023-03-29T06:00:32.218Z,84.29
2023-03-29T06:01:34.428Z,83.19
2023-03-29T06:02:36.634Z,84.13
2023-03-29T06:03:38.524Z,82.55
2023-03-29T06:04:40.366Z,80.79
2023-03-29T06:05:41.759Z,82.40
2023-03-29T06:06:43.286Z,83.65
2023-03-29T06:07:45.252Z,83.22
2023-03-29T06:08:47.745Z,82.06
2023-03-29T06:09:49.150Z,82.25
2023-03-29T06:10:51.792Z,81.32
2023-03-29T06:11:53.615Z,80.06
2023-03-29T06:12:55.434Z,78.26
2023-03-29T06:13:57.509Z,79.77
2023-03-29T06:15:04.648Z,79.73
2023-03-29T06:16:06.668Z,80.28
2023-03-29T06:17:08.093Z,79.51
2023-03-29T06:18:09.863Z,77.10
2023-03-29T06:19:11.339Z,77.61
2023-03-29T06:20:14.185Z,80.00
2023-03-29T06:21:15.590Z,80.48
2023-03-29T06:22:17.061Z,79.33
2023-03-29T06:23:19.846Z,79.16
2023-03-29T06:24:21.314Z,77.09
2023-03-29T06:25:22.765Z,75.23
2023-03-29T06:26:24.861Z,77.88
2023-03-29T06:27:26.155Z,75.80
2023-03-29T06:28:27.662Z,74.38
2023-03-29T06:29:29.079Z,77.89
2023-03-29T06:30:30.480Z,74.28
2023-03-29T06:31:32.219Z,73.32
2023-03-29T06:32:34.628Z,73.52
2023-03-29T06:33:38.006Z,73.58
2023-03-29T06:34:39.520Z,75.24
2023-03-29T06:35:43.613Z,74.66
2023-03-29T06:36:45.777Z,74.74
2023-03-29T06:37:50.060Z,76.28
2023-03-29T06:38:52.380Z,72.74
2023-03-29T06:39:53.859Z,76.04
2023-03-29T06:41:03.937Z,74.74
2023-03-29T06:42:20.216Z,72.59
2023-03-29T06:43:22.923Z,74.05
2023-03-29T06:44:25.522Z,71.19
2023-03-29T06:45:29.516Z,72.18
2023-03-29T06:46:31.640Z,74.45
2023-03-29T06:47:33.158Z,73.49
2023-03-29T06:48:34.656Z,74.18
2023-03-29T06:49:36.202Z,73.77
2023-03-29T06:50:37.766Z,72.55
2023-03-29T06:51:40.126Z,75.18
2023-03-29T06:52:41.843Z,72.01
2023-03-29T06:53:43.246Z,72.46
2023-03-29T06:54:44.699Z,70.86
2023-03-29T06:55:46.124Z,70.60
2023-03-29T06:56:47.903Z,71.44
2023-03-29T06:57:49.386Z,71.78
2023-03-29T06:58:51.487Z,72.88
2023-03-29T06:59:53.813Z,71.20
2023-03-29T07:01:00.840Z,72.53
2023-03-29T07:02:02.757Z,69.59
2023-03-29T07:03:07.299Z,72.36
2023-03-29T07:04:09.299Z,71.06
2023-03-29T07:05:12.050Z,70.92
2023-03-29T07:06:14.909Z,70.58
2023-03-29T07:07:22.509Z,71.55
2023-03-29T07:08:30.873Z,72.64
2023-03-29T07:09:32.427Z,72.04
2023-03-29T07:10:39.347Z,68.27
2023-03-29T07:11:41.617Z,68.91
2023-03-29T07:12:44.599Z,68.25
2023-03-29T07:13:46.203Z,69.01
2023-03-29T07:14:48.448Z,67.46
2023-03-29T07:15:49.879Z,66.84
2023-03-29T07:16:52.193Z,68.39
2023-03-29T07:17:54.382Z,68.39
2023-03-29T07:18:55.889Z,68.49
2023-03-29T07:19:57.703Z,68.45
2023-03-29T07:20:59.227Z,69.95
2023-03-29T07:22:00.892Z,66.44
2023-03-29T07:23:02.359Z,66.16
2023-03-29T07:24:04.737Z,69.64
2023-03-29T07:25:09.282Z,68.59
2023-03-29T07:26:11.878Z,69.12
2023-03-29T07:27:13.317Z,67.58
2023-03-29T07:28:14.962Z,66.56
2023-03-29T07:29:16.380Z,67.71
2023-03-29T07:30:22.084Z,65.18
2023-03-29T07:31:23.528Z,67.58
2023-03-29T07:32:25.021Z,69.10
2023-03-29T07:33:26.639Z,67.19
2023-03-29T07:34:29.928Z,68.09
2023-03-29T07:35:32.626Z,66.62
2023-03-29T07:36:34.864Z,66.41
2023-03-29T07:37:37.381Z,65.64
2023-03-29T07:38:38.862Z,65.99
2023-03-29T07:39:40.344Z,67.95
2023-03-29T07:40:41.787Z,66.53
2023-03-29T07:41:43.198Z,67.58
2023-03-29T07:42:48.906Z,65.90
2023-03-29T07:43:51.766Z,67.30
2023-03-29T07:44:54.179Z,66.07
2023-03-29T07:45:55.973Z,66.21
2023-03-29T07:46:59.906Z,67.27
2023-03-29T07:48:02.097Z,66.21
2023-03-29T07:49:04.264Z,66.78
2023-03-29T07:50:07.425Z,67.96
2023-03-29T07:51:08.964Z,65.78
2023-03-29T07:52:10.509Z,63.16
2023-03-29T07:53:12.485Z,63.92
2023-03-29T07:54:13.808Z,64.51
2023-03-29T07:55:15.425Z,63.63
2023-03-29T07:56:16.859Z,65.45
2023-03-29T07:57:18.334Z,64.84
2023-03-29T07:58:20.185Z,65.59
2023-03-29T07:59:21.601Z,64.20
2023-03-29T08:00:24.719Z,63.75
2023-03-29T08:01:26.429Z,64.60
2023-03-29T08:02:28.972Z,64.77
2023-03-29T08:03:30.473Z,62.16
2023-03-29T08:04:32.221Z,64.20
2023-03-29T08:05:41.244Z,63.65
2023-03-29T08:06:43.459Z,62.19
2023-03-29T08:07:46.715Z,63.77
2023-03-29T08:08:48.144Z,64.09
2023-03-29T08:09:49.602Z,63.88
2023-03-29T08:10:51.865Z,61.28
2023-03-29T08:11:53.581Z,63.85
2023-03-29T08:12:55.247Z,62.29
2023-03-29T08:13:57.495Z,63.82
2023-03-29T08:14:58.904Z,63.06
2023-03-29T08:16:00.307Z,61.70
2023-03-29T08:17:01.758Z,62.65
2023-03-29T08:18:03.575Z,62.74
2023-03-29T08:19:05.114Z,62.62
2023-03-29T08:20:09.694Z,62.20
2023-03-29T08:21:11.185Z,61.94
2023-03-29T08:22:12.610Z,61.88
2023-03-29T08:23:14.039Z,61.58
2023-03-29T08:24:15.451Z,60.83
2023-03-29T08:25:17.024Z,61.72
2023-03-29T08:26:18.658Z,62.42
2023-03-29T08:27:20.180Z,62.35
2023-03-29T08:28:22.251Z,63.95
2023-03-29T08:29:23.752Z,63.58
2023-03-29T08:30:25.650Z,63.43
2023-03-29T08:31:27.191Z,62.87
2023-03-29T08:32:28.744Z,61.09
2023-03-29T08:33:30.231Z,62.82
2023-03-29T08:34:31.861Z,62.53
2023-03-29T08:35:33.419Z,60.25
2023-03-29T08:36:34.858Z,61.80
2023-03-29T08:37:37.498Z,61.63
2023-03-29T08:38:38.918Z,61.39
2023-03-29T08:39:40.424Z,60.46
2023-03-29T08:40:42.295Z,60.20
2023-03-29T08:42:08.831Z,61.71
2023-03-29T08:43:45.848Z,61.96
2023-03-29T08:45:02.641Z,60.62
2023-03-29T08:46:35.083Z,58.88
2023-03-29T08:47:59.222Z,62.03
2023-03-29T08:49:04.502Z,61.55
2023-03-29T08:50:07.476Z,60.63
2023-03-29T08:51:21.436Z,60.10
2023-03-29T08:52:40.203Z,60.91
2023-03-29T08:53:50.457Z,62.04
2023-03-29T08:54:55.935Z,60.80
2023-03-29T08:56:01.760Z,62.65
2023-03-29T08:57:12.879Z,60.98
2023-03-29T08:58:21.193Z,61.72
2023-03-29T08:59:31.960Z,62.97
2023-03-29T09:00:42.821Z,59.92
2023-03-29T09:01:46.781Z,61.34
2023-03-29T09:02:53.804Z,61.46
2023-03-29T09:04:03.215Z,59.05
2023-03-29T09:05:28.980Z,60.66
2023-03-29T09:06:30.817Z,60.00
2023-03-29T09:07:32.544Z,60.87
2023-03-29T09:08:43.851Z,61.00
2023-03-29T09:09:45.539Z,58.49
2023-03-29T09:10:56.880Z,60.19
2023-03-29T09:12:09.372Z,60.59
2023-03-29T09:13:23.137Z,60.31
2023-03-29T09:14:47.683Z,61.51
2023-03-29T09:15:54.402Z,59.11
2023-03-29T09:17:07.468Z,55.85
2023-03-29T09:18:19.119Z,55.39
2023-03-29T09:19:42.329Z,56.12
2023-03-29T09:21:00.280Z,55.70
2023-03-29T09:22:39.177Z,57.15
2023-03-29T09:24:22.329Z,56.04
2023-03-29T09:25:53.067Z,56.40
2023-03-29T09:27:05.159Z,57.83
2023-03-29T09:28:17.568Z,59.15
2023-03-29T09:29:31.062Z,57.72
2023-03-29T09:30:42.787Z,57.77
2023-03-29T09:31:44.836Z,57.19
2023-03-29T09:33:12.393Z,58.14
2023-03-29T09:34:23.564Z,58.27
2023-03-29T09:35:31.067Z,59.18
2023-03-29T09:36:45.271Z,56.18
2023-03-29T09:37:49.044Z,59.10
2023-03-29T09:38:54.193Z,56.57
2023-03-29T09:39:57.498Z,54.28
2023-03-29T09:41:06.638Z,56.20
2023-03-29T09:42:12.359Z,54.01
2023-03-29T09:43:18.339Z,54.05
2023-03-29T09:44:30.886Z,56.16
2023-03-29T09:45:35.258Z,55.22
2023-03-29T09:46:44.003Z,55.65
2023-03-29T09:48:18.297Z,56.26
2023-03-29T09:49:32.952Z,54.75
2023-03-29T09:50:41.150Z,55.97
2023-03-29T09:51:45.027Z,56.77
2023-03-29T09:52:48.691Z,55.45
2023-03-29T09:53:50.439Z,54.98
2023-03-29T09:54:52.174Z,54.51
2023-03-29T09:55:55.293Z,56.17
2023-03-29T09:56:56.821Z,53.79
2023-03-29T09:58:01.978Z,54.86
2023-03-29T09:59:03.398Z,56.42
2023-03-29T10:00:06.088Z,55.19
2023-03-29T10:01:10.327Z,55.70
2023-03-29T10:02:13.595Z,55.65
2023-03-29T10:03:27.210Z,54.46
2023-03-29T10:04:28.634Z,51.56
2023-03-29T10:05:34.581Z,51.56
2023-03-29T10:06:38.812Z,54.13
2023-03-29T10:07:45.531Z,54.73
2023-03-29T10:08:51.862Z,54.67
2023-03-29T10:09:55.911Z,53.79
2023-03-29T10:10:59.475Z,53.71
2023-03-29T10:12:05.591Z,50.88
2023-03-29T10:13:13.470Z,52.45
2023-03-29T10:14:19.479Z,52.75
2023-03-29T10:15:29.249Z,52.39
2023-03-29T10:16:38.339Z,53.74
2023-03-29T10:17:40.988Z,50.52
2023-03-29T10:18:43.484Z,52.10
2023-03-29T10:19:52.787Z,51.58
2023-03-29T10:20:59.923Z,50.62
2023-03-29T10:22:06.424Z,47.89
2023-03-29T10:23:09.186Z,49.60
2023-03-29T10:24:10.636Z,49.39
2023-03-29T10:25:18.162Z,49.65
2023-03-29T10:26:19.529Z,50.26
2023-03-29T10:27:29.402Z,50.05
2023-03-29T10:28:32.569Z,47.39
2023-03-29T10:29:38.529Z,50.14
2023-03-29T10:30:40.206Z,49.63
2023-03-29T10:31:43.083Z,47.43
2023-03-29T10:32:44.777Z,48.09
2023-03-29T10:33:52.455Z,49.08
2023-03-29T10:34:55.183Z,48.48
2023-03-29T10:35:58.399Z,48.05
2023-03-29T10:37:01.984Z,50.27
2023-03-29T10:38:07.601Z,53.07
2023-03-29T10:39:13.375Z,52.93
2023-03-29T10:40:35.205Z,52.03
2023-03-29T10:41:36.875Z,51.55
2023-03-29T10:42:47.952Z,50.11
2023-03-29T10:43:51.626Z,48.34
2023-03-29T10:44:56.242Z,50.33
2023-03-29T10:46:08.160Z,51.41
2023-03-29T10:47:09.590Z,51.23
2023-03-29T10:48:16.603Z,50.92
2023-03-29T10:49:20.417Z,50.88
2023-03-29T10:50:21.840Z,49.54
2023-03-29T10:51:24.624Z,48.51
2023-03-29T10:52:26.551Z,47.83
2023-03-29T10:53:35.390Z,49.06
2023-03-29T10:54:37.281Z,50.51
2023-03-29T10:55:54.197Z,49.29
2023-03-29T10:57:00.327Z,51.03
2023-03-29T10:58:24.520Z,51.76
2023-03-29T10:59:29.489Z,50.04
2023-03-29T11:00:49.154Z,49.41
2023-03-29T11:02:08.056Z,52.09
2023-03-29T11:03:20.961Z,50.42
2023-03-29T11:04:42.075Z,50.23
2023-03-29T11:05:58.633Z,52.75
2023-03-29T11:07:22.578Z,53.02
2023-03-29T11:08:28.435Z,54.91
2023-03-29T11:09:37.350Z,54.37
2023-03-29T11:11:00.016Z,56.57
2023-03-29T11:12:28.541Z,54.48
2023-03-29T11:14:13.527Z,52.83
2023-03-29T11:15:43.742Z,52.66
2023-03-29T11:16:57.154Z,53.73
2023-03-29T11:17:58.558Z,54.03
2023-03-29T11:19:06.725Z,52.22
2023-03-29T11:20:16.288Z,53.41
2023-03-29T11:21:45.692Z,52.31
2023-03-29T11:22:55.943Z,51.24
2023-03-29T11:24:31.263Z,52.19
2023-03-29T11:25:40.608Z,51.77
2023-03-29T11:27:17.047Z,54.37
2023-03-29T11:28:35.263Z,54.31
2023-03-29T11:29:49.007Z,52.58
2023-03-29T11:30:59.335Z,54.88
2023-03-29T11:32:07.236Z,52.80
2023-03-29T11:33:20.800Z,53.16
2023-03-29T11:34:37.223Z,50.89
2023-03-29T11:36:14.579Z,52.21
2023-03-29T11:37:25.522Z,51.11
2023-03-29T11:38:32.258Z,51.94
2023-03-29T11:40:09.126Z,52.83
2023-03-29T11:41:14.735Z,51.63
2023-03-29T11:42:24.033Z,51.25
2023-03-29T11:43:35.934Z,52.74
2023-03-29T11:44:40.734Z,50.67
2023-03-29T11:45:49.064Z,52.57
2023-03-29T11:46:57.037Z,52.03
2023-03-29T11:48:02.301Z,50.14
2023-03-29T11:49:21.433Z,50.01
2023-03-29T11:50:45.446Z,51.92
2023-03-29T11:51:54.366Z,52.19
2023-03-29T11:53:05.013Z,52.23
2023-03-29T11:54:28.377Z,51.42
2023-03-29T11:55:36.530Z,48.28
2023-03-29T11:56:44.259Z,50.90
2023-03-29T11:58:08.592Z,50.10
2023-03-29T11:59:15.954Z,50.72
2023-03-29T12:00:21.431Z,51.82
2023-03-29T12:01:33.392Z,52.10
2023-03-29T12:02:41.149Z,51.44
2023-03-29T12:03:47.260Z,50.82
2023-03-29T12:04:52.125Z,52.10
2023-03-29T12:05:59.986Z,52.70
2023-03-29T12:07:15.192Z,51.82
2023-03-29T12:08:31.266Z,51.95
2023-03-29T12:09:49.934Z,52.31
2023-03-29T12:11:02.197Z,51.83
2023-03-29T12:12:23.298Z,52.14
2023-03-29T12:13:30.461Z,51.83
2023-03-29T12:15:01.152Z,52.91
2023-03-29T12:16:18.182Z,50.76
2023-03-29T12:17:27.044Z,52.03
2023-03-29T12:18:42.038Z,54.29
2023-03-29T12:19:50.401Z,53.43
2023-03-29T12:20:58.581Z,52.30
2023-03-29T12:22:01.344Z,52.67
2023-03-29T12:23:03.010Z,51.57
2023-03-29T12:24:04.851Z,52.64
2023-03-29T12:25:12.691Z,51.79
2023-03-29T12:26:40.488Z,51.49
2023-03-29T12:28:01.750Z,53.54
2023-03-29T12:29:11.966Z,50.94
2023-03-29T12:30:29.129Z,51.75
2023-03-29T12:31:54.987Z,54.38
2023-03-29T12:33:16.107Z,52.33
2023-03-29T12:34:26.444Z,51.58
2023-03-29T12:35:59.450Z,51.16
2023-03-29T12:37:31.015Z,52.32
2023-03-29T12:38:32.897Z,54.19
2023-03-29T12:39:37.047Z,52.54
2023-03-29T12:40:45.669Z,52.38
2023-03-29T12:41:51.560Z,52.29
2023-03-29T12:43:01.126Z,52.43
2023-03-29T12:44:04.580Z,54.42
2023-03-29T12:45:12.532Z,53.16
2023-03-29T12:46:13.880Z,54.15
2023-03-29T12:47:23.442Z,54.31
2023-03-29T12:48:27.657Z,53.80
2023-03-29T12:49:38.997Z,53.22
2023-03-29T12:50:48.905Z,50.75
2023-03-29T12:51:51.231Z,51.68
2023-03-29T12:52:53.121Z,51.42
2023-03-29T12:54:08.475Z,50.56
2023-03-29T12:55:42.316Z,52.58
2023-03-29T12:56:53.109Z,50.94
2023-03-29T12:58:02.245Z,54.22
2023-03-29T12:59:38.767Z,53.04
2023-03-29T13:00:40.222Z,52.05
2023-03-29T13:01:57.872Z,52.22
2023-03-29T13:03:23.187Z,51.60
2023-03-29T13:04:38.743Z,50.68
2023-03-29T13:05:40.258Z,51.85
2023-03-29T13:07:03.083Z,50.90
2023-03-29T13:08:21.549Z,50.52
2023-03-29T13:09:29.664Z,51.74
2023-03-29T13:10:41.212Z,51.82
2023-03-29T13:11:42.828Z,52.29
2023-03-29T13:12:49.522Z,52.12
2023-03-29T13:13:52.274Z,54.69
2023-03-29T13:15:00.589Z,51.76
2023-03-29T13:16:21.539Z,53.00
2023-03-29T13:17:26.135Z,50.62
2023-03-29T13:18:43.676Z,49.70
2023-03-29T13:20:18.804Z,51.72
2023-03-29T13:21:27.738Z,54.56
2023-03-29T13:22:44.241Z,52.54
2023-03-29T13:24:21.590Z,52.31
2023-03-29T13:25:34.406Z,53.93
2023-03-29T13:26:50.229Z,52.47
2023-03-29T13:28:23.182Z,52.82
2023-03-29T13:29:47.929Z,52.29
2023-03-29T13:30:58.366Z,53.11
2023-03-29T13:32:18.607Z,50.75
2023-03-29T13:33:44.745Z,52.99
2023-03-29T13:34:51.485Z,54.43
2023-03-29T13:36:37.555Z,53.16
2023-03-29T13:38:09.744Z,54.62
2023-03-29T13:39:19.536Z,55.22
2023-03-29T13:40:26.523Z,53.72
2023-03-29T13:41:39.865Z,53.05
2023-03-29T13:42:42.124Z,53.92
2023-03-29T13:43:44.509Z,52.40
2023-03-29T13:44:49.051Z,53.52
2023-03-29T13:45:56.714Z,53.99
2023-03-29T13:47:13.845Z,54.38
2023-03-29T13:48:30.146Z,53.95
2023-03-29T13:49:34.274Z,54.97
2023-03-29T13:50:40.296Z,53.05
2023-03-29T13:51:48.706Z,55.96
2023-03-29T13:53:05.851Z,52.56
2023-03-29T13:54:45.838Z,52.07
2023-03-29T13:55:51.032Z,54.81
2023-03-29T13:57:03.804Z,55.32
2023-03-29T13:58:17.278Z,54.57
2023-03-29T13:59:25.061Z,54.15
2023-03-29T14:00:32.746Z,53.36
2023-03-29T14:01:47.436Z,51.53
2023-03-29T14:02:54.669Z,53.74
2023-03-29T14:03:57.554Z,52.59
2023-03-29T14:05:02.015Z,53.27
2023-03-29T14:06:04.841Z,51.53
2023-03-29T14:07:08.178Z,54.05
2023-03-29T14:08:36.467Z,54.79
2023-03-29T14:09:43.304Z,53.28
2023-03-29T14:10:45.777Z,54.03
2023-03-29T14:11:47.775Z,55.19
2023-03-29T14:12:49.640Z,53.60
2023-03-29T14:13:57.010Z,55.95
2023-03-29T14:15:01.861Z,54.89
2023-03-29T14:16:08.964Z,55.75
2023-03-29T14:17:22.767Z,55.91
2023-03-29T14:18:27.580Z,55.88
2023-03-29T14:19:36.460Z,54.73
2023-03-29T14:20:38.009Z,56.95